Time;durP1;ratioP1;P1;durP2;ratioP2;P2;SDS_P1;SDS_P2;PMS_P1;PMS_P2;Temp;Humidity;BMP_temperature;BMP_pressure;BME280_temperature;BME280_humidity;BME280_pressure;Samples;Min_cycle;Max_cycle;Signal;HPM_P1;HPM_P2
2021/12/01 00:00:58;;;;;;;;;;;21.70;30.00;;;;;;471543;252;1522;-59
2021/12/01 00:03:00;;;;;;;;;;;21.70;30.00;;;;;;478876;247;1088;-59
2021/12/01 00:05:01;;;;;;;;;;;21.70;30.00;;;;;;471782;251;2135;-59
2021/12/01 00:07:03;;;;;;;;;;;21.70;30.10;;;;;;478936;247;1161;-58
2021/12/01 00:09:04;;;;;;;;;;;21.60;30.10;;;;;;471876;251;1121;-59
2021/12/01 00:11:05;;;;;;;;;;;21.70;30.10;;;;;;478950;247;1099;-59
2021/12/01 00:13:07;;;;;;;;;;;21.70;30.10;;;;;;471734;251;1172;-58
2021/12/01 00:15:08;;;;;;;;;;;21.60;30.20;;;;;;478953;247;1252;-59
2021/12/01 00:17:11;;;;;;;;;;;21.60;30.10;;;;;;471896;250;1222;-59
2021/12/01 00:19:11;;;;;;;;;;;21.70;30.00;;;;;;478945;248;1834;-59
2021/12/01 00:21:12;;;;;;;;;;;21.70;30.00;;;;;;471825;251;1208;-59
2021/12/01 00:23:13;;;;;;;;;;;21.70;30.10;;;;;;479024;247;2198;-59
2021/12/01 00:25:15;;;;;;;;;;;21.70;30.10;;;;;;471827;251;979;-59
2021/12/01 00:27:16;;;;;;;;;;;21.70;30.10;;;;;;478998;247;1215;-59
2021/12/01 00:29:17;;;;;;;;;;;21.70;30.10;;;;;;471847;251;985;-59
2021/12/01 00:31:19;;;;;;;;;;;21.80;30.00;;;;;;478866;247;1182;-59
2021/12/01 00:33:22;;;;;;;;;;;21.70;30.10;;;;;;471950;250;1100;-59
2021/12/01 00:35:22;;;;;;;;;;;21.70;30.10;;;;;;479019;247;1291;-59
2021/12/01 00:37:23;;;;;;;;;;;21.60;30.10;;;;;;471597;251;1340;-59
2021/12/01 00:39:25;;;;;;;;;;;21.70;30.10;;;;;;478973;247;969;-59
2021/12/01 00:41:26;;;;;;;;;;;21.60;30.20;;;;;;471676;251;1234;-59
2021/12/01 00:43:28;;;;;;;;;;;21.60;30.20;;;;;;478968;247;2182;-58
2021/12/01 00:45:32;;;;;;;;;;;21.60;30.20;;;;;;471838;251;1206;-58
2021/12/01 00:47:42;;;;;;;;;;;21.70;30.20;;;;;;478719;248;1324;-59
2021/12/01 00:49:33;;;;;;;;;;;21.70;30.20;;;;;;471247;252;1437;-58
2021/12/01 00:51:34;;;;;;;;;;;21.70;30.10;;;;;;478886;247;1396;-59
2021/12/01 00:53:36;;;;;;;;;;;21.70;30.30;;;;;;471831;250;1051;-58
2021/12/01 00:55:37;;;;;;;;;;;21.60;30.30;;;;;;478953;247;1322;-59
2021/12/01 00:57:38;;;;;;;;;;;21.70;30.20;;;;;;471848;250;1145;-59
2021/12/01 00:59:39;;;;;;;;;;;21.80;30.20;;;;;;478971;247;1056;-59
2021/12/01 01:01:41;;;;;;;;;;;21.70;30.20;;;;;;471802;250;1245;-59
2021/12/01 01:03:42;;;;;;;;;;;21.60;30.40;;;;;;479050;247;2147;-59
2021/12/01 01:05:44;;;;;;;;;;;21.70;30.40;;;;;;471764;251;1114;-59
2021/12/01 01:07:45;;;;;;;;;;;21.70;30.40;;;;;;478926;247;980;-59
2021/12/01 01:09:46;;;;;;;;;;;21.70;30.30;;;;;;471860;251;985;-59
2021/12/01 01:16:26;;;;;;;;;;;21.60;30.40;;;;;;478855;247;1082;-59
2021/12/01 01:18:28;;;;;;;;;;;21.60;30.50;;;;;;471794;250;1127;-59
2021/12/01 01:20:29;;;;;;;;;;;21.60;30.50;;;;;;478913;247;1339;-58
2021/12/01 01:22:30;;;;;;;;;;;21.60;30.50;;;;;;471828;251;1197;-58
2021/12/01 01:24:32;;;;;;;;;;;21.60;30.60;;;;;;478994;247;2213;-59
2021/12/01 01:26:33;;;;;;;;;;;21.60;30.50;;;;;;471790;250;1257;-59
2021/12/01 01:28:34;;;;;;;;;;;21.60;30.60;;;;;;478983;247;1135;-59
2021/12/01 01:30:36;;;;;;;;;;;21.60;30.40;;;;;;471774;250;1309;-59
2021/12/01 01:32:37;;;;;;;;;;;21.60;30.50;;;;;;478958;247;1248;-59
2021/12/01 01:34:38;;;;;;;;;;;21.60;30.50;;;;;;471881;250;970;-59
2021/12/01 01:36:40;;;;;;;;;;;21.70;30.50;;;;;;478885;247;1177;-59
2021/12/01 01:38:41;;;;;;;;;;;21.70;30.50;;;;;;471789;251;1134;-59
2021/12/01 01:40:42;;;;;;;;;;;21.60;30.50;;;;;;478998;247;1092;-59
2021/12/01 01:42:44;;;;;;;;;;;21.60;30.60;;;;;;472020;250;1205;-59
2021/12/01 01:44:45;;;;;;;;;;;21.60;30.60;;;;;;479003;247;2155;-59
2021/12/01 01:46:46;;;;;;;;;;;21.60;30.50;;;;;;471760;250;1328;-59
2021/12/01 01:48:50;;;;;;;;;;;21.60;30.60;;;;;;478972;247;1111;-59
2021/12/01 01:50:50;;;;;;;;;;;21.60;30.60;;;;;;471698;252;1922;-58
2021/12/01 01:52:52;;;;;;;;;;;21.60;30.60;;;;;;479005;247;1122;-59
2021/12/01 01:54:53;;;;;;;;;;;21.60;30.60;;;;;;471789;251;1306;-59
2021/12/01 01:56:54;;;;;;;;;;;21.60;30.50;;;;;;479000;247;1219;-59
2021/12/01 01:58:56;;;;;;;;;;;21.60;30.70;;;;;;471778;251;1255;-59
2021/12/01 02:01:06;;;;;;;;;;;21.60;30.60;;;;;;478949;247;1426;-59
2021/12/01 02:03:02;;;;;;;;;;;21.60;30.60;;;;;;471566;252;1359;-59
2021/12/01 02:05:03;;;;;;;;;;;21.60;30.60;;;;;;479035;247;2130;-59
2021/12/01 02:07:05;;;;;;;;;;;21.60;30.60;;;;;;471779;251;1224;-59
2021/12/01 02:09:06;;;;;;;;;;;21.60;30.70;;;;;;478902;248;1275;-59
2021/12/01 02:11:09;;;;;;;;;;;21.60;30.70;;;;;;471819;250;1440;-59
2021/12/01 02:13:09;;;;;;;;;;;21.60;30.60;;;;;;478905;247;2357;-58
2021/12/01 02:15:10;;;;;;;;;;;21.60;30.60;;;;;;471853;251;987;-59
2021/12/01 02:17:12;;;;;;;;;;;21.60;30.60;;;;;;478843;247;1271;-59
2021/12/01 02:19:13;;;;;;;;;;;21.60;30.60;;;;;;471761;251;1123;-59
2021/12/01 02:21:14;;;;;;;;;;;21.60;30.60;;;;;;478980;247;1379;-59
2021/12/01 02:23:16;;;;;;;;;;;21.60;30.60;;;;;;471792;251;1085;-59
2021/12/01 02:25:17;;;;;;;;;;;21.70;30.60;;;;;;479090;247;2187;-59
2021/12/01 02:27:18;;;;;;;;;;;21.60;30.60;;;;;;471840;251;1033;-58
2021/12/01 02:29:20;;;;;;;;;;;21.60;30.60;;;;;;478934;247;1187;-59
2021/12/01 02:31:22;;;;;;;;;;;21.70;30.60;;;;;;471821;251;1219;-59
2021/12/01 02:33:23;;;;;;;;;;;21.70;30.60;;;;;;478973;247;1000;-59
2021/12/01 02:35:24;;;;;;;;;;;21.70;30.60;;;;;;471776;251;1246;-59
2021/12/01 02:37:26;;;;;;;;;;;21.60;30.60;;;;;;478924;247;1182;-59
2021/12/01 02:39:27;;;;;;;;;;;21.70;30.60;;;;;;471873;251;1186;-59
2021/12/01 02:41:28;;;;;;;;;;;21.70;30.70;;;;;;478981;247;1222;-58
2021/12/01 02:43:31;;;;;;;;;;;21.60;30.60;;;;;;471841;251;1193;-59
2021/12/01 02:45:31;;;;;;;;;;;21.60;30.70;;;;;;478962;248;2131;-58
2021/12/01 02:47:32;;;;;;;;;;;21.60;30.70;;;;;;471859;251;1128;-58
2021/12/01 02:49:34;;;;;;;;;;;21.60;30.70;;;;;;478942;247;1124;-59
2021/12/01 02:51:37;;;;;;;;;;;21.60;30.70;;;;;;471842;251;1249;-59
2021/12/01 02:53:37;;;;;;;;;;;21.60;30.70;;;;;;478896;248;1415;-59
2021/12/01 02:55:38;;;;;;;;;;;21.60;30.70;;;;;;471797;251;1150;-58
2021/12/01 02:57:39;;;;;;;;;;;21.70;30.70;;;;;;479024;247;1176;-59
2021/12/01 02:59:41;;;;;;;;;;;21.70;30.60;;;;;;471893;251;1213;-58
2021/12/01 03:01:42;;;;;;;;;;;21.80;30.60;;;;;;478896;247;1151;-59
2021/12/01 03:03:43;;;;;;;;;;;21.80;30.50;;;;;;471836;251;1105;-58
2021/12/01 03:05:45;;;;;;;;;;;21.80;30.50;;;;;;478960;247;2199;-58
2021/12/01 03:07:46;;;;;;;;;;;21.80;30.40;;;;;;471721;251;1194;-59
2021/12/01 03:09:47;;;;;;;;;;;21.80;30.60;;;;;;478920;247;974;-58
2021/12/01 03:11:50;;;;;;;;;;;21.80;30.60;;;;;;471738;251;1150;-58
2021/12/01 03:13:51;;;;;;;;;;;21.70;30.60;;;;;;478937;247;1045;-59
2021/12/01 03:15:52;;;;;;;;;;;21.70;30.70;;;;;;471784;251;1184;-59
2021/12/01 03:17:53;;;;;;;;;;;21.70;30.70;;;;;;478932;247;1153;-59
2021/12/01 03:19:55;;;;;;;;;;;21.60;30.70;;;;;;471781;251;977;-59
2021/12/01 03:21:56;;;;;;;;;;;21.60;30.70;;;;;;478880;247;1205;-58
2021/12/01 03:23:58;;;;;;;;;;;21.70;30.80;;;;;;471890;251;1051;-59
2021/12/01 03:25:59;;;;;;;;;;;21.70;30.70;;;;;;478955;247;2148;-59
2021/12/01 03:28:00;;;;;;;;;;;21.70;30.70;;;;;;471747;251;1714;-59
2021/12/01 03:30:01;;;;;;;;;;;21.70;30.70;;;;;;478949;247;1208;-59
2021/12/01 03:32:03;;;;;;;;;;;21.70;30.70;;;;;;471730;251;1109;-59
2021/12/01 03:34:04;;;;;;;;;;;21.70;30.80;;;;;;478942;247;983;-59
2021/12/01 03:36:05;;;;;;;;;;;21.80;30.70;;;;;;471776;251;1173;-59
2021/12/01 03:38:07;;;;;;;;;;;21.70;30.70;;;;;;478926;247;1090;-59
2021/12/01 03:40:08;;;;;;;;;;;21.70;30.80;;;;;;471836;251;974;-59
2021/12/01 03:42:10;;;;;;;;;;;21.60;30.90;;;;;;478848;247;1191;-59
2021/12/01 03:44:11;;;;;;;;;;;21.60;30.90;;;;;;471769;251;1071;-59
2021/12/01 03:46:12;;;;;;;;;;;21.70;30.80;;;;;;478939;247;2154;-58
2021/12/01 03:48:14;;;;;;;;;;;21.60;30.80;;;;;;471831;251;1217;-59
2021/12/01 03:50:15;;;;;;;;;;;21.70;30.70;;;;;;479005;247;1063;-59
2021/12/01 03:52:17;;;;;;;;;;;21.70;30.80;;;;;;471809;251;1058;-59
2021/12/01 03:54:18;;;;;;;;;;;21.70;30.90;;;;;;478983;247;981;-59
2021/12/01 03:56:20;;;;;;;;;;;21.70;30.80;;;;;;471833;251;1329;-59
2021/12/01 03:58:20;;;;;;;;;;;21.60;30.90;;;;;;478947;247;1846;-59
2021/12/01 04:00:22;;;;;;;;;;;21.70;30.90;;;;;;471799;250;1167;-59
2021/12/01 04:02:23;;;;;;;;;;;21.60;31.00;;;;;;478945;247;1157;-58
2021/12/01 04:04:24;;;;;;;;;;;21.60;30.90;;;;;;471874;251;1033;-58
2021/12/01 04:06:26;;;;;;;;;;;21.60;30.90;;;;;;478983;247;2202;-59
2021/12/01 04:08:27;;;;;;;;;;;21.60;30.90;;;;;;471848;251;1035;-59
2021/12/01 04:10:28;;;;;;;;;;;21.70;30.90;;;;;;478952;247;1072;-59
2021/12/01 04:12:30;;;;;;;;;;;21.70;30.90;;;;;;471812;250;1176;-59
2021/12/01 04:14:31;;;;;;;;;;;21.70;30.90;;;;;;478933;247;1051;-59
2021/12/01 04:16:32;;;;;;;;;;;21.70;30.90;;;;;;471769;248;1217;-59
2021/12/01 04:18:34;;;;;;;;;;;21.70;31.00;;;;;;479069;247;1110;-59
2021/12/01 04:20:35;;;;;;;;;;;21.60;31.10;;;;;;471823;251;1109;-59
2021/12/01 04:22:37;;;;;;;;;;;21.60;31.10;;;;;;478997;247;1164;-59
2021/12/01 04:24:38;;;;;;;;;;;21.60;31.10;;;;;;471860;251;988;-59
2021/12/01 04:26:39;;;;;;;;;;;21.70;31.00;;;;;;479002;247;2111;-58
2021/12/01 04:28:41;;;;;;;;;;;21.60;31.00;;;;;;471873;250;2418;-58
2021/12/01 04:30:42;;;;;;;;;;;21.70;30.90;;;;;;478993;247;1272;-59
2021/12/01 04:32:43;;;;;;;;;;;21.70;30.90;;;;;;471827;251;1182;-58
2021/12/01 04:34:45;;;;;;;;;;;21.70;30.90;;;;;;479038;247;1178;-59
2021/12/01 04:36:47;;;;;;;;;;;21.60;31.10;;;;;;471811;250;1199;-59
2021/12/01 04:38:47;;;;;;;;;;;21.60;31.10;;;;;;478944;248;1456;-59
2021/12/01 04:40:49;;;;;;;;;;;21.60;31.20;;;;;;471818;250;1084;-59
2021/12/01 04:42:50;;;;;;;;;;;21.60;31.20;;;;;;478997;247;973;-59
2021/12/01 04:44:51;;;;;;;;;;;21.60;31.20;;;;;;471861;250;2131;-59
2021/12/01 04:46:56;;;;;;;;;;;21.60;31.20;;;;;;478877;247;1326;-59
2021/12/01 04:48:54;;;;;;;;;;;21.60;31.20;;;;;;471634;252;1363;-59
2021/12/01 04:50:55;;;;;;;;;;;21.60;31.10;;;;;;478934;247;1011;-59
2021/12/01 04:52:58;;;;;;;;;;;21.70;31.00;;;;;;471746;251;1138;-59
2021/12/01 04:54:58;;;;;;;;;;;21.70;31.00;;;;;;478950;248;1426;-59
2021/12/01 04:57:00;;;;;;;;;;;21.70;31.00;;;;;;471714;251;1223;-59
2021/12/01 04:59:01;;;;;;;;;;;21.60;31.20;;;;;;478947;247;1037;-59
2021/12/01 05:01:02;;;;;;;;;;;21.60;31.10;;;;;;471776;251;1170;-59
2021/12/01 05:03:04;;;;;;;;;;;21.70;31.10;;;;;;478923;247;1161;-59
2021/12/01 05:05:05;;;;;;;;;;;21.60;31.10;;;;;;471698;251;2206;-58
2021/12/01 05:07:06;;;;;;;;;;;21.60;31.30;;;;;;478740;247;1537;-59
2021/12/01 05:09:08;;;;;;;;;;;21.60;31.20;;;;;;471722;250;1080;-60
2021/12/01 05:11:09;;;;;;;;;;;21.60;31.10;;;;;;478916;247;1263;-59
2021/12/01 05:13:10;;;;;;;;;;;21.60;31.10;;;;;;471813;250;1121;-59
2021/12/01 05:15:12;;;;;;;;;;;21.60;31.20;;;;;;478953;247;994;-59
2021/12/01 05:17:13;;;;;;;;;;;21.60;31.20;;;;;;471782;251;1228;-59
2021/12/01 05:19:14;;;;;;;;;;;21.60;31.20;;;;;;478978;247;1055;-59
2021/12/01 05:21:16;;;;;;;;;;;21.60;31.30;;;;;;471718;250;1283;-58
2021/12/01 05:23:17;;;;;;;;;;;21.60;31.10;;;;;;478891;247;983;-60
2021/12/01 05:25:18;;;;;;;;;;;21.60;31.20;;;;;;471719;251;2194;-58
2021/12/01 05:27:20;;;;;;;;;;;21.60;31.20;;;;;;478965;247;1328;-59
2021/12/01 05:29:23;;;;;;;;;;;21.60;31.30;;;;;;471736;251;1059;-59
2021/12/01 05:31:22;;;;;;;;;;;21.70;31.20;;;;;;478713;248;2219;-59
2021/12/01 05:33:24;;;;;;;;;;;21.70;31.00;;;;;;471789;251;1086;-59
2021/12/01 05:35:25;;;;;;;;;;;21.70;31.10;;;;;;478863;247;1068;-59
2021/12/01 05:37:26;;;;;;;;;;;21.70;31.10;;;;;;471742;250;1120;-59
2021/12/01 05:39:28;;;;;;;;;;;21.70;31.00;;;;;;478845;247;974;-59
2021/12/01 05:41:29;;;;;;;;;;;21.70;31.10;;;;;;471644;249;1310;-58
2021/12/01 05:43:30;;;;;;;;;;;21.70;31.10;;;;;;478734;247;1085;-59
2021/12/01 05:45:32;;;;;;;;;;;21.70;31.10;;;;;;471573;251;2190;-59
2021/12/01 05:47:33;;;;;;;;;;;21.60;31.20;;;;;;478736;247;1219;-59
2021/12/01 05:49:40;;;;;;;;;;;21.60;31.20;;;;;;471675;251;1086;-59
2021/12/01 05:51:36;;;;;;;;;;;21.60;31.20;;;;;;478381;248;1321;-59
2021/12/01 05:53:37;;;;;;;;;;;21.60;31.20;;;;;;471669;250;1086;-60
2021/12/01 05:55:38;;;;;;;;;;;21.60;31.20;;;;;;478792;247;1023;-59
2021/12/01 05:57:40;;;;;;;;;;;21.70;31.20;;;;;;471634;251;1638;-59
2021/12/01 05:59:41;;;;;;;;;;;21.60;31.20;;;;;;478803;247;1060;-59
2021/12/01 06:01:42;;;;;;;;;;;21.70;31.10;;;;;;471629;251;1303;-59
2021/12/01 06:03:44;;;;;;;;;;;21.70;31.20;;;;;;478677;247;1120;-59
2021/12/01 06:05:45;;;;;;;;;;;21.70;31.20;;;;;;471598;250;2123;-58
2021/12/01 06:07:46;;;;;;;;;;;21.70;31.30;;;;;;478721;247;1090;-59
2021/12/01 06:09:48;;;;;;;;;;;21.60;31.30;;;;;;471622;250;1035;-59
2021/12/01 06:11:51;;;;;;;;;;;21.60;31.30;;;;;;478695;247;1326;-59
2021/12/01 06:13:52;;;;;;;;;;;21.60;31.40;;;;;;471513;251;2075;-59
2021/12/01 06:15:52;;;;;;;;;;;21.70;31.30;;;;;;478637;248;2080;-59
2021/12/01 06:17:55;;;;;;;;;;;21.70;31.40;;;;;;471455;251;1213;-59
2021/12/01 06:19:55;;;;;;;;;;;21.70;31.30;;;;;;478673;248;2377;-59
2021/12/01 06:21:56;;;;;;;;;;;21.70;31.30;;;;;;471575;251;1164;-59
2021/12/01 06:23:57;;;;;;;;;;;21.70;31.40;;;;;;478894;247;1022;-58
2021/12/01 06:25:59;;;;;;;;;;;21.70;31.30;;;;;;471641;251;2139;-59
2021/12/01 06:28:00;;;;;;;;;;;21.70;31.50;;;;;;478778;247;1185;-59
2021/12/01 06:30:01;;;;;;;;;;;21.60;31.50;;;;;;471624;251;1053;-60
2021/12/01 06:32:03;;;;;;;;;;;21.70;31.40;;;;;;478653;247;1338;-60
2021/12/01 06:34:04;;;;;;;;;;;21.70;31.40;;;;;;471549;251;1188;-59
2021/12/01 06:36:05;;;;;;;;;;;21.80;31.30;;;;;;478543;247;1221;-59
2021/12/01 06:38:07;;;;;;;;;;;21.80;31.40;;;;;;471326;251;1614;-59
2021/12/01 06:40:08;;;;;;;;;;;21.80;31.40;;;;;;478565;247;1244;-59
2021/12/01 06:42:09;;;;;;;;;;;21.70;31.50;;;;;;471364;250;1193;-59
2021/12/01 06:44:11;;;;;;;;;;;21.60;31.60;;;;;;478596;247;1024;-59
2021/12/01 06:46:12;;;;;;;;;;;21.60;31.70;;;;;;471400;250;2198;-59
2021/12/01 06:48:13;;;;;;;;;;;21.60;31.70;;;;;;478467;247;1244;-59
2021/12/01 06:50:15;;;;;;;;;;;21.60;31.70;;;;;;471382;251;1143;-59
2021/12/01 06:52:16;;;;;;;;;;;21.60;31.70;;;;;;478377;247;1015;-59
2021/12/01 06:54:17;;;;;;;;;;;21.60;31.80;;;;;;471378;251;1250;-58
2021/12/01 06:56:19;;;;;;;;;;;21.60;31.70;;;;;;478559;247;1282;-59
2021/12/01 06:58:20;;;;;;;;;;;21.70;31.60;;;;;;471541;251;1184;-59
2021/12/01 07:00:22;;;;;;;;;;;21.70;31.60;;;;;;478595;247;1051;-59
2021/12/01 07:02:23;;;;;;;;;;;21.70;31.60;;;;;;471311;251;1130;-59
2021/12/01 07:04:24;;;;;;;;;;;21.70;31.70;;;;;;478493;247;1025;-59
2021/12/01 07:06:26;;;;;;;;;;;21.60;31.70;;;;;;471333;251;2194;-59
2021/12/01 07:08:27;;;;;;;;;;;21.70;31.70;;;;;;478552;247;1060;-60
2021/12/01 07:10:28;;;;;;;;;;;21.60;31.80;;;;;;471333;251;1155;-59
2021/12/01 07:12:30;;;;;;;;;;;21.60;31.80;;;;;;478502;247;1362;-59
2021/12/01 07:14:31;;;;;;;;;;;21.60;31.80;;;;;;471216;251;1101;-59
2021/12/01 07:16:33;;;;;;;;;;;21.60;31.90;;;;;;478489;247;1229;-59
2021/12/01 07:18:34;;;;;;;;;;;21.70;31.70;;;;;;471268;251;1206;-59
2021/12/01 07:20:35;;;;;;;;;;;21.70;31.70;;;;;;478363;247;1193;-59
2021/12/01 07:22:36;;;;;;;;;;;21.70;31.70;;;;;;471342;251;1235;-59
2021/12/01 07:24:38;;;;;;;;;;;21.60;32.00;;;;;;478527;247;1182;-58
2021/12/01 07:26:39;;;;;;;;;;;21.40;32.10;;;;;;471344;251;2198;-59
2021/12/01 07:28:40;;;;;;;;;;;21.40;32.30;;;;;;478467;247;1056;-58
2021/12/01 07:30:43;;;;;;;;;;;21.30;32.30;;;;;;471237;251;1355;-59
2021/12/01 07:32:43;;;;;;;;;;;21.30;32.40;;;;;;478184;248;1785;-59
2021/12/01 07:34:45;;;;;;;;;;;21.20;32.40;;;;;;471160;251;1195;-59
2021/12/01 07:36:46;;;;;;;;;;;21.20;32.40;;;;;;478314;247;1175;-59
2021/12/01 07:38:49;;;;;;;;;;;21.20;32.40;;;;;;471235;250;1055;-59
2021/12/01 07:40:49;;;;;;;;;;;21.20;32.30;;;;;;478193;248;2279;-59
2021/12/01 07:42:51;;;;;;;;;;;21.30;32.30;;;;;;471216;251;1059;-59
2021/12/01 07:44:51;;;;;;;;;;;21.20;32.30;;;;;;478360;248;1936;-59
2021/12/01 07:46:53;;;;;;;;;;;21.20;32.40;;;;;;471264;250;2206;-59
2021/12/01 07:48:54;;;;;;;;;;;21.20;32.40;;;;;;478370;247;1177;-59
2021/12/01 07:50:55;;;;;;;;;;;21.20;32.40;;;;;;471029;251;1228;-59
2021/12/01 07:52:57;;;;;;;;;;;21.20;32.30;;;;;;478136;247;1092;-59
2021/12/01 07:54:58;;;;;;;;;;;21.20;32.40;;;;;;470918;250;1142;-59
2021/12/01 07:57:01;;;;;;;;;;;21.20;32.40;;;;;;478163;247;1205;-59
2021/12/01 07:59:01;;;;;;;;;;;21.20;32.40;;;;;;470966;251;2078;-59
2021/12/01 08:01:02;;;;;;;;;;;21.20;32.30;;;;;;478110;247;1207;-59
2021/12/01 08:03:04;;;;;;;;;;;21.20;32.30;;;;;;470983;251;1202;-59
2021/12/01 08:05:05;;;;;;;;;;;21.20;32.20;;;;;;478077;247;1099;-59
2021/12/01 08:07:06;;;;;;;;;;;21.20;32.20;;;;;;471001;250;2202;-59
2021/12/01 08:09:08;;;;;;;;;;;21.30;32.20;;;;;;478153;247;991;-59
2021/12/01 08:11:09;;;;;;;;;;;21.20;32.30;;;;;;470916;251;1145;-58
2021/12/01 08:13:10;;;;;;;;;;;21.20;32.30;;;;;;478136;247;1069;-58
2021/12/01 08:15:12;;;;;;;;;;;21.20;32.30;;;;;;470957;250;1061;-60
2021/12/01 08:17:13;;;;;;;;;;;21.20;32.30;;;;;;478018;247;1215;-59
2021/12/01 08:19:14;;;;;;;;;;;21.20;32.10;;;;;;470947;251;1228;-59
2021/12/01 08:21:16;;;;;;;;;;;21.20;32.30;;;;;;478071;247;1135;-59
2021/12/01 08:23:17;;;;;;;;;;;21.30;32.20;;;;;;471197;250;1064;-59
2021/12/01 08:25:18;;;;;;;;;;;21.20;32.10;;;;;;478023;247;1067;-59
2021/12/01 08:27:20;;;;;;;;;;;21.30;32.10;;;;;;471046;250;2198;-58
2021/12/01 08:29:21;;;;;;;;;;;21.30;32.10;;;;;;478246;247;1165;-58
2021/12/01 08:31:22;;;;;;;;;;;21.20;32.10;;;;;;471039;248;1203;-59
2021/12/01 08:33:24;;;;;;;;;;;21.20;32.10;;;;;;478171;247;1157;-59
2021/12/01 08:35:25;;;;;;;;;;;21.20;32.10;;;;;;470930;251;1153;-59
2021/12/01 08:37:26;;;;;;;;;;;21.20;32.10;;;;;;478322;247;1186;-58
2021/12/01 08:39:28;;;;;;;;;;;21.20;32.10;;;;;;470964;251;1050;-59
2021/12/01 08:41:29;;;;;;;;;;;21.10;32.10;;;;;;478197;247;1192;-58
2021/12/01 08:43:30;;;;;;;;;;;21.20;32.00;;;;;;471129;251;1044;-59
2021/12/01 08:45:33;;;;;;;;;;;21.30;32.00;;;;;;478255;247;1055;-59
2021/12/01 08:47:33;;;;;;;;;;;21.30;31.90;;;;;;471061;252;2230;-59
2021/12/01 08:49:34;;;;;;;;;;;21.30;31.80;;;;;;478104;247;1164;-59
2021/12/01 08:51:36;;;;;;;;;;;21.30;31.70;;;;;;470939;251;1226;-59
2021/12/01 08:53:37;;;;;;;;;;;21.40;31.70;;;;;;478341;247;1041;-58
2021/12/01 08:55:41;;;;;;;;;;;21.40;31.60;;;;;;471060;250;1233;-59
2021/12/01 08:57:41;;;;;;;;;;;21.40;31.80;;;;;;478095;248;2136;-58
2021/12/01 08:59:42;;;;;;;;;;;21.30;31.90;;;;;;470948;251;1411;-59
2021/12/01 09:01:42;;;;;;;;;;;21.20;31.90;;;;;;478039;247;1145;-58
2021/12/01 09:03:44;;;;;;;;;;;21.20;32.00;;;;;;470906;250;1228;-59
2021/12/01 09:05:45;;;;;;;;;;;21.20;32.00;;;;;;478070;247;1207;-59
2021/12/01 09:07:46;;;;;;;;;;;21.20;31.90;;;;;;471164;250;2217;-59
2021/12/01 09:09:48;;;;;;;;;;;21.20;31.90;;;;;;478205;247;1053;-59
2021/12/01 09:11:49;;;;;;;;;;;21.20;31.90;;;;;;471096;250;1132;-59
2021/12/01 09:13:50;;;;;;;;;;;21.30;31.90;;;;;;478246;247;1152;-59
2021/12/01 09:15:53;;;;;;;;;;;21.30;31.80;;;;;;471106;251;1300;-59
2021/12/01 09:17:54;;;;;;;;;;;21.30;31.90;;;;;;478210;247;1039;-59
2021/12/01 09:19:55;;;;;;;;;;;21.20;31.90;;;;;;471065;250;1185;-59
2021/12/01 09:21:56;;;;;;;;;;;21.10;32.10;;;;;;478236;247;1305;-59
2021/12/01 09:23:58;;;;;;;;;;;21.10;32.10;;;;;;471160;250;1034;-58
2021/12/01 09:25:59;;;;;;;;;;;21.10;32.10;;;;;;478092;247;1296;-59
2021/12/01 09:28:00;;;;;;;;;;;21.20;32.10;;;;;;470997;250;2217;-59
2021/12/01 09:30:02;;;;;;;;;;;21.20;32.00;;;;;;478182;247;1059;-59
2021/12/01 09:32:03;;;;;;;;;;;21.20;32.00;;;;;;471129;250;1283;-59
2021/12/01 09:34:04;;;;;;;;;;;21.20;32.00;;;;;;478084;247;1094;-59
2021/12/01 09:36:06;;;;;;;;;;;21.30;32.00;;;;;;470971;251;1218;-58
2021/12/01 09:38:08;;;;;;;;;;;21.20;31.90;;;;;;478519;247;1012;-59
2021/12/01 09:40:12;;;;;;;;;;;21.20;31.90;;;;;;470921;251;1220;-58
2021/12/01 09:42:10;;;;;;;;;;;21.20;31.90;;;;;;477880;248;2254;-58
2021/12/01 09:44:12;;;;;;;;;;;21.20;31.90;;;;;;470894;251;1065;-58
2021/12/01 09:46:13;;;;;;;;;;;21.20;31.90;;;;;;477990;247;1356;-58
2021/12/01 09:48:14;;;;;;;;;;;21.30;31.90;;;;;;470858;251;2214;-59
2021/12/01 09:50:16;;;;;;;;;;;21.30;31.90;;;;;;478058;247;1143;-58
2021/12/01 09:52:18;;;;;;;;;;;21.30;31.90;;;;;;470988;251;1255;-59
2021/12/01 09:54:19;;;;;;;;;;;21.30;31.80;;;;;;478162;247;2568;-59
2021/12/01 09:56:20;;;;;;;;;;;21.30;31.80;;;;;;471146;251;1147;-59
2021/12/01 09:58:22;;;;;;;;;;;21.30;31.80;;;;;;478124;247;1300;-59
2021/12/01 10:00:23;;;;;;;;;;;21.30;31.80;;;;;;471021;252;1371;-59
2021/12/01 10:02:25;;;;;;;;;;;21.30;31.80;;;;;;478091;247;1411;-58
2021/12/01 10:04:25;;;;;;;;;;;21.30;31.90;;;;;;470832;251;1193;-59
2021/12/01 10:06:27;;;;;;;;;;;21.20;31.90;;;;;;477995;247;1237;-59
2021/12/01 10:08:28;;;;;;;;;;;21.20;31.90;;;;;;471098;251;2147;-59
2021/12/01 10:10:29;;;;;;;;;;;21.30;31.80;;;;;;478092;247;1209;-58
2021/12/01 10:12:31;;;;;;;;;;;21.30;31.80;;;;;;470962;251;1187;-59
2021/12/01 10:14:32;;;;;;;;;;;21.30;31.80;;;;;;478168;247;1247;-59
2021/12/01 10:16:33;;;;;;;;;;;21.30;31.80;;;;;;470905;251;1377;-58
2021/12/01 10:18:34;;;;;;;;;;;21.30;31.80;;;;;;478178;247;1088;-58
2021/12/01 10:20:36;;;;;;;;;;;21.20;31.80;;;;;;470864;251;1159;-59
2021/12/01 10:22:37;;;;;;;;;;;21.30;31.80;;;;;;478193;247;1448;-59
2021/12/01 10:24:39;;;;;;;;;;;21.30;31.80;;;;;;471027;250;1043;-59
2021/12/01 10:26:40;;;;;;;;;;;21.20;31.80;;;;;;478108;247;3202;-59
2021/12/01 10:28:41;;;;;;;;;;;21.30;31.70;;;;;;470842;251;2135;-59
2021/12/01 10:30:43;;;;;;;;;;;21.30;31.60;;;;;;478008;247;1118;-59
2021/12/01 10:32:44;;;;;;;;;;;21.40;31.60;;;;;;470912;251;1112;-59
2021/12/01 10:34:47;;;;;;;;;;;21.40;31.60;;;;;;478008;247;1080;-59
2021/12/01 10:36:47;;;;;;;;;;;21.40;31.60;;;;;;470865;252;2190;-59
2021/12/01 10:38:48;;;;;;;;;;;21.40;31.60;;;;;;478132;247;1244;-59
2021/12/01 10:40:49;;;;;;;;;;;21.40;31.60;;;;;;471160;251;1247;-59
2021/12/01 10:42:51;;;;;;;;;;;21.40;31.50;;;;;;477933;247;1321;-59
2021/12/01 10:44:52;;;;;;;;;;;21.40;31.60;;;;;;470940;251;1055;-59
2021/12/01 10:46:53;;;;;;;;;;;21.40;31.50;;;;;;477983;247;1210;-59
2021/12/01 10:48:55;;;;;;;;;;;21.40;31.50;;;;;;470980;251;2187;-59
2021/12/01 10:50:56;;;;;;;;;;;21.40;31.50;;;;;;477901;247;1251;-59
2021/12/01 10:52:57;;;;;;;;;;;21.40;31.40;;;;;;471161;250;1124;-58
2021/12/01 10:54:59;;;;;;;;;;;21.40;31.40;;;;;;478296;247;1052;-58
2021/12/01 10:57:01;;;;;;;;;;;21.50;31.30;;;;;;471130;251;1241;-58
2021/12/01 10:59:02;;;;;;;;;;;21.50;31.20;;;;;;478171;247;1083;-59
2021/12/01 11:01:03;;;;;;;;;;;21.50;31.40;;;;;;471038;251;1317;-59
2021/12/01 11:03:04;;;;;;;;;;;21.50;31.30;;;;;;478173;247;1289;-59
2021/12/01 11:05:06;;;;;;;;;;;21.60;31.30;;;;;;471066;251;1084;-59
2021/12/01 11:07:07;;;;;;;;;;;21.60;31.30;;;;;;478107;247;2139;-59
2021/12/01 11:09:08;;;;;;;;;;;21.50;31.40;;;;;;471167;251;1086;-59
2021/12/01 11:11:09;;;;;;;;;;;21.30;31.80;;;;;;478262;247;1039;-59
2021/12/01 11:13:11;;;;;;;;;;;21.10;31.90;;;;;;470869;251;1220;-59
2021/12/01 11:15:12;;;;;;;;;;;21.10;31.90;;;;;;478029;247;1064;-59
2021/12/01 11:17:13;;;;;;;;;;;21.10;32.00;;;;;;470970;251;1355;-59
2021/12/01 11:19:15;;;;;;;;;;;21.10;32.00;;;;;;478275;247;1057;-59
2021/12/01 11:21:16;;;;;;;;;;;21.10;32.00;;;;;;470976;251;1281;-58
2021/12/01 11:23:17;;;;;;;;;;;21.10;32.00;;;;;;478461;247;1148;-59
2021/12/01 11:25:19;;;;;;;;;;;21.20;31.80;;;;;;471116;251;1064;-59
2021/12/01 11:27:20;;;;;;;;;;;21.30;31.70;;;;;;478230;247;2203;-61
2021/12/01 11:29:22;;;;;;;;;;;21.40;31.50;;;;;;471115;251;1179;-59
2021/12/01 11:31:23;;;;;;;;;;;21.60;31.20;;;;;;478255;247;1310;-59
2021/12/01 11:33:24;;;;;;;;;;;21.60;31.20;;;;;;471169;251;1060;-59
2021/12/01 11:35:26;;;;;;;;;;;21.70;31.10;;;;;;478080;247;1220;-58
2021/12/01 11:37:27;;;;;;;;;;;21.70;31.10;;;;;;470937;251;1376;-58
2021/12/01 11:39:30;;;;;;;;;;;21.80;31.00;;;;;;478135;247;1044;-59
2021/12/01 11:41:31;;;;;;;;;;;21.90;31.00;;;;;;470992;251;2404;-59
2021/12/01 11:43:31;;;;;;;;;;;21.90;30.90;;;;;;478163;248;2147;-59
2021/12/01 11:45:32;;;;;;;;;;;21.90;30.80;;;;;;471093;248;1291;-59
2021/12/01 11:47:34;;;;;;;;;;;22.00;30.90;;;;;;478153;247;2195;-59
2021/12/01 11:49:35;;;;;;;;;;;22.00;30.90;;;;;;471089;251;1180;-59
2021/12/01 11:51:36;;;;;;;;;;;22.00;30.90;;;;;;478107;247;1261;-59
2021/12/01 11:53:38;;;;;;;;;;;22.00;30.90;;;;;;471156;251;1233;-59
2021/12/01 11:55:39;;;;;;;;;;;22.00;30.90;;;;;;478310;247;1242;-59
2021/12/01 11:57:41;;;;;;;;;;;22.00;30.80;;;;;;470995;251;1195;-59
2021/12/01 11:59:42;;;;;;;;;;;22.10;30.70;;;;;;477989;247;1087;-59
2021/12/01 12:01:43;;;;;;;;;;;22.00;30.80;;;;;;470788;251;1187;-59